Bellcaire d'Emporda, Spain

12:57 AM CEST on April 28, 2017 (GMT +0200)
IGIRONAB1 | | Change Station

Elev 23 ft 42.08 °N, 3.10 °E | Updated 1 second ago

Clear
Clear
42.4 °F
Feels Like 41 °F
N
3.5
Wind Variable Wind from SSW
Gusts 3.5 mph

Today
High -- | Low -- °F
--% Chance of Precip.
Yesterday
High -- | Low -- °F
Precip. -- in
Pressure 30.04 in
Visibility -9999.0 miles
Clouds
Windchill 41 °F
Dew Point 36 °F
Humidity 77%
Rainfall 0.00 in
Snow Depth Not available.
6:47 AM 8:43 PM
Waxing Crescent, 3% visible
METAR LEGE 272230Z VRB01KT CAVOK 03/02 Q1017
Pressure 30.04 in
Visibility -9999.0 miles
Clouds
Windchill 41 °F
Dew Point 36 °F
Humidity 77%
Rainfall 0.00 in
Snow Depth Not available.
6:47 AM 8:43 PM
Waxing Crescent, 3% visible
METAR LEGE 272230Z VRB01KT CAVOK 03/02 Q1017

Get Severe Weather Alerts

Thanks for signing up!

Be on the lookout for a verification email in your inbox.

You'll start receiving the daily forecast at 8 AM.

×

10-Day Weather Forecast

×

Almanac

Astronomy

Apr. 28, 2017 Rise Set
Actual Time
Civil Twilight
Nautical Twilight
Astronomical Twilight
Moon
Length of Visible Light
Length of Day
Tomorrow will be .
, % of the Moon is Illuminated

Today's Extremes

Country Highs Country Lows

Community

WunderPhotos

WunderBlog® & News

Nearby

Air Quality

  Air Quality AQ Index Pollutant
Not available.

Snow Depth

Station Depth Elevation

Earthquake Activity

City Distance Mag. Time & Date
Minimum magnitude displayed is 2.5.

Coastal Water Temperatures

Place Temperature

Stations

Nearby Weather Stations

Station Location Temp. Windchill Dew Point Humidity Wind Precip. Elev Updated Type